Time;durP1;ratioP1;P1;durP2;ratioP2;P2;SDS_P1;SDS_P2;PMS_P1;PMS_P2;Temp;Humidity;BMP_temperature;BMP_pressure;BME280_temperature;BME280_humidity;BME280_pressure;Samples;Min_cycle;Max_cycle;Signal;HPM_P1;HPM_P2
2022/04/05 00:01:54;;;;;;;1.52;0.50;;;10.70;58.60;;;;;;5078539;28;20043;-43
2022/04/05 00:04:22;;;;;;;0.68;0.40;;;10.70;58.80;;;;;;5082648;28;20520;-41
2022/04/05 00:06:49;;;;;;;0.65;0.20;;;10.70;59.10;;;;;;5080107;28;20052;-42
2022/04/05 00:09:17;;;;;;;0.75;0.30;;;10.70;59.00;;;;;;5081472;28;20056;-43
2022/04/05 00:11:44;;;;;;;0.00;0.00;;;10.70;59.00;;;;;;5079073;28;20048;-42
2022/04/05 00:14:12;;;;;;;0.20;0.20;;;10.70;59.10;;;;;;5082196;28;20048;-44
2022/04/05 00:16:39;;;;;;;0.20;0.20;;;10.80;59.60;;;;;;5082901;28;20059;-41
2022/04/05 00:19:08;;;;;;;2.08;0.47;;;10.80;59.10;;;;;;5081837;28;20059;-42
2022/04/05 00:21:36;;;;;;;0.22;0.22;;;10.80;59.10;;;;;;5078946;28;20432;-42
2022/04/05 00:24:03;;;;;;;0.30;0.30;;;10.90;59.00;;;;;;5081846;28;20047;-46
2022/04/05 00:26:31;;;;;;;0.63;0.35;;;10.90;59.00;;;;;;5079128;28;20059;-43
2022/04/05 00:28:58;;;;;;;1.65;0.20;;;10.90;59.00;;;;;;5082624;28;20048;-42
2022/04/05 00:31:26;;;;;;;0.75;0.20;;;11.00;59.10;;;;;;5080107;28;20056;-42
2022/04/05 00:33:53;;;;;;;2.83;0.20;;;11.00;59.20;;;;;;5080677;28;20048;-42
2022/04/05 00:36:22;;;;;;;0.30;0.30;;;11.00;59.10;;;;;;5081786;28;20056;-42
2022/04/05 00:38:50;;;;;;;0.30;0.30;;;11.00;59.10;;;;;;5067752;28;20052;-42
2022/04/05 00:41:17;;;;;;;0.55;0.30;;;11.00;59.10;;;;;;5059635;28;20048;-42
2022/04/05 00:43:46;;;;;;;0.93;0.60;;;11.10;59.30;;;;;;5059999;28;20438;-46
2022/04/05 00:46:13;;;;;;;0.50;0.35;;;11.00;59.20;;;;;;5060907;28;20052;-42
2022/04/05 00:48:48;;;;;;;0.63;0.10;;;11.00;59.30;;;;;;5062314;28;20061;-42
2022/04/05 00:51:17;;;;;;;0.20;0.20;;;11.10;59.30;;;;;;5058891;28;20059;-42
2022/04/05 00:53:48;;;;;;;0.90;0.20;;;11.10;59.30;;;;;;5059277;28;20048;-42
2022/04/05 00:56:17;;;;;;;0.43;0.20;;;11.10;59.40;;;;;;5059420;28;20719;-41
2022/04/05 00:58:48;;;;;;;0.32;0.20;;;11.10;59.30;;;;;;5057844;28;20049;-42
2022/04/05 01:01:18;;;;;;;0.20;0.20;;;11.10;59.30;;;;;;5059674;28;20055;-42
2022/04/05 01:03:48;;;;;;;0.75;0.30;;;11.10;59.40;;;;;;5060003;28;20055;-43
2022/04/05 01:06:18;;;;;;;0.20;0.20;;;11.20;59.50;;;;;;5060953;28;20053;-43
2022/04/05 01:08:47;;;;;;;0.32;0.25;;;11.20;59.40;;;;;;5061054;28;20053;-42
2022/04/05 01:11:15;;;;;;;0.17;0.15;;;11.10;59.20;;;;;;5059587;28;20048;-42
2022/04/05 01:13:43;;;;;;;0.75;0.25;;;11.20;59.20;;;;;;5062073;28;20044;-43
2022/04/05 01:16:11;;;;;;;0.85;0.30;;;11.20;59.20;;;;;;5061154;28;20064;-43
2022/04/05 01:18:39;;;;;;;0.75;0.40;;;11.20;59.30;;;;;;5059001;28;20416;-41
2022/04/05 01:21:07;;;;;;;0.10;0.10;;;11.20;59.50;;;;;;5060803;28;20484;-41
2022/04/05 01:23:34;;;;;;;0.20;0.20;;;11.20;59.60;;;;;;5059089;28;20059;-42
2022/04/05 01:26:03;;;;;;;0.63;0.30;;;11.20;59.80;;;;;;5060430;28;20056;-43
2022/04/05 01:28:31;;;;;;;0.40;0.32;;;11.20;60.00;;;;;;5061318;28;20056;-43
2022/04/05 01:30:58;;;;;;;0.25;0.25;;;11.20;60.10;;;;;;5060011;28;20412;-42
2022/04/05 01:33:26;;;;;;;0.88;0.47;;;11.30;60.20;;;;;;5058099;28;20060;-43
2022/04/05 01:35:53;;;;;;;1.63;0.20;;;11.30;60.50;;;;;;5060607;28;20057;-41
2022/04/05 01:38:21;;;;;;;0.35;0.35;;;11.30;60.50;;;;;;5068751;28;20066;-42
2022/04/05 01:40:50;;;;;;;0.68;0.40;;;11.30;60.70;;;;;;5083306;28;20059;-42
2022/04/05 01:43:19;;;;;;;0.82;0.28;;;11.30;60.70;;;;;;5081895;28;20044;-42
2022/04/05 01:45:46;;;;;;;0.75;0.30;;;11.30;60.80;;;;;;5085824;28;20052;-47
2022/04/05 01:48:15;;;;;;;0.30;0.30;;;11.30;60.90;;;;;;5082912;28;20048;-43
2022/04/05 01:50:44;;;;;;;0.40;0.38;;;11.30;61.10;;;;;;5083931;28;20051;-43
2022/04/05 01:53:12;;;;;;;0.20;0.20;;;11.30;61.20;;;;;;5083037;28;20507;-45
2022/04/05 01:55:39;;;;;;;0.40;0.40;;;11.30;61.10;;;;;;5084730;28;20063;-42
2022/04/05 01:58:07;;;;;;;0.40;0.40;;;11.30;61.40;;;;;;5082916;28;20682;-42
2022/04/05 02:00:36;;;;;;;2.88;0.50;;;11.30;61.50;;;;;;5084203;28;20059;-43
2022/04/05 02:03:03;;;;;;;0.60;0.50;;;11.30;61.50;;;;;;5081449;28;20063;-42
2022/04/05 02:05:31;;;;;;;1.67;0.50;;;11.30;61.90;;;;;;5082920;28;20055;-43
2022/04/05 02:07:58;;;;;;;0.32;0.32;;;11.30;62.00;;;;;;5084109;28;20051;-43
2022/04/05 02:10:26;;;;;;;0.50;0.50;;;11.30;62.20;;;;;;5082523;28;20052;-43
2022/04/05 02:12:53;;;;;;;2.30;0.85;;;11.30;62.50;;;;;;5081854;28;20496;-43
2022/04/05 02:15:21;;;;;;;0.38;0.28;;;11.30;62.40;;;;;;5085024;28;20063;-42
2022/04/05 02:17:50;;;;;;;0.30;0.30;;;11.30;62.60;;;;;;5083794;28;20043;-44
2022/04/05 02:20:18;;;;;;;0.22;0.20;;;11.30;62.50;;;;;;5085004;28;20409;-44
2022/04/05 02:22:45;;;;;;;0.40;0.40;;;11.30;62.80;;;;;;5081249;28;20428;-42
2022/04/05 02:25:13;;;;;;;0.40;0.40;;;11.30;63.40;;;;;;5084488;28;20063;-42
2022/04/05 02:27:41;;;;;;;0.52;0.50;;;11.40;62.80;;;;;;5082823;28;20063;-49
2022/04/05 02:30:10;;;;;;;0.70;0.70;;;11.30;63.00;;;;;;5085658;28;20051;-42
2022/04/05 02:32:38;;;;;;;0.60;0.60;;;11.30;63.00;;;;;;5081870;28;20058;-43
2022/04/05 02:35:08;;;;;;;0.63;0.63;;;11.30;62.90;;;;;;5083369;28;20059;-42
2022/04/05 02:37:36;;;;;;;2.15;0.85;;;11.40;63.30;;;;;;5079296;28;20504;-42
2022/04/05 02:40:03;;;;;;;0.68;0.65;;;11.40;63.30;;;;;;5063327;28;20052;-43
2022/04/05 02:42:31;;;;;;;2.05;0.60;;;11.40;63.20;;;;;;5060581;28;20083;-42
2022/04/05 02:44:59;;;;;;;0.70;0.70;;;11.40;63.20;;;;;;5064950;28;20401;-43
2022/04/05 02:47:26;;;;;;;0.68;0.60;;;11.40;63.40;;;;;;5064066;28;20044;-46
2022/04/05 02:49:54;;;;;;;0.77;0.77;;;11.40;63.30;;;;;;5062757;28;20059;-43
2022/04/05 02:52:23;;;;;;;1.20;0.63;;;11.40;63.20;;;;;;5059078;28;20071;-45
2022/04/05 02:54:50;;;;;;;1.00;0.90;;;11.40;63.50;;;;;;5062439;28;20049;-42
2022/04/05 02:57:18;;;;;;;1.98;0.70;;;11.40;63.50;;;;;;5063127;28;20056;-43
2022/04/05 02:59:46;;;;;;;0.70;0.70;;;11.40;63.60;;;;;;5062341;28;20504;-43
2022/04/05 03:02:13;;;;;;;1.83;0.73;;;11.40;63.70;;;;;;5061247;28;20404;-43
2022/04/05 03:04:41;;;;;;;0.93;0.90;;;11.40;64.00;;;;;;5063427;28;20508;-42
2022/04/05 03:07:08;;;;;;;1.45;1.00;;;11.40;64.00;;;;;;5063244;28;20507;-43
2022/04/05 03:09:37;;;;;;;2.67;1.15;;;11.40;64.20;;;;;;5063744;28;20886;-43
2022/04/05 03:12:06;;;;;;;1.25;1.10;;;11.50;64.50;;;;;;5042004;28;20044;-45
2022/04/05 03:14:33;;;;;;;1.52;1.10;;;11.40;64.50;;;;;;5063896;28;20059;-43
2022/04/05 03:17:01;;;;;;;1.30;1.20;;;11.40;64.50;;;;;;5063582;28;20052;-44
2022/04/05 03:19:28;;;;;;;1.58;1.42;;;11.50;64.80;;;;;;5063526;28;20063;-43
2022/04/05 03:21:56;;;;;;;3.08;1.15;;;11.40;64.70;;;;;;5061069;28;20052;-44
2022/04/05 03:24:23;;;;;;;1.70;1.30;;;11.50;64.60;;;;;;5061821;28;20056;-42
2022/04/05 03:26:52;;;;;;;2.00;1.30;;;11.50;64.70;;;;;;5061937;28;20052;-42
2022/04/05 03:29:19;;;;;;;1.80;1.23;;;11.40;64.70;;;;;;5063199;28;20060;-43
2022/04/05 03:31:47;;;;;;;1.65;1.38;;;11.50;64.80;;;;;;5060511;28;20044;-45
2022/04/05 03:34:14;;;;;;;2.10;1.13;;;11.50;65.00;;;;;;5063106;28;20049;-45
2022/04/05 03:36:43;;;;;;;1.23;1.13;;;11.50;64.90;;;;;;5060569;28;20566;-43
2022/04/05 03:39:13;;;;;;;1.63;1.23;;;11.50;64.90;;;;;;5078961;28;20048;-45
2022/04/05 03:41:41;;;;;;;1.60;1.02;;;11.50;65.00;;;;;;5080398;28;20062;-43
2022/04/05 03:44:10;;;;;;;0.80;0.80;;;11.50;65.10;;;;;;5081317;28;20063;-45
2022/04/05 03:46:38;;;;;;;1.35;1.25;;;11.50;65.00;;;;;;5082118;28;20412;-43
2022/04/05 03:49:06;;;;;;;1.63;1.02;;;11.50;65.20;;;;;;5083183;28;20052;-43
2022/04/05 03:51:33;;;;;;;3.03;1.10;;;11.50;65.20;;;;;;5077568;28;20060;-43
2022/04/05 03:54:00;;;;;;;1.20;1.10;;;11.60;65.50;;;;;;5080628;28;20051;-47
2022/04/05 03:56:28;;;;;;;1.13;0.90;;;11.60;65.70;;;;;;5081345;28;20385;-41
2022/04/05 03:58:55;;;;;;;1.40;1.10;;;11.60;65.70;;;;;;5081249;28;20057;-43
2022/04/05 04:01:25;;;;;;;2.60;1.05;;;11.50;65.80;;;;;;5080937;28;20048;-43
2022/04/05 04:03:52;;;;;;;1.00;0.90;;;11.60;65.80;;;;;;5081564;28;20062;-44
2022/04/05 04:06:19;;;;;;;3.75;1.10;;;11.60;65.70;;;;;;5081679;28;20056;-44
2022/04/05 04:08:47;;;;;;;2.55;1.10;;;11.50;65.80;;;;;;5081154;28;20059;-43
2022/04/05 04:11:14;;;;;;;1.20;1.10;;;11.60;65.90;;;;;;5080272;28;20055;-44
2022/04/05 04:13:42;;;;;;;4.63;2.45;;;11.60;66.20;;;;;;5081609;28;20063;-43
2022/04/05 04:16:09;;;;;;;1.10;1.00;;;11.60;66.10;;;;;;5074770;28;20047;-42
2022/04/05 04:18:38;;;;;;;1.00;0.90;;;11.60;66.10;;;;;;5079620;28;20518;-43
2022/04/05 04:21:06;;;;;;;1.67;1.05;;;11.60;66.20;;;;;;5079967;28;20052;-43
2022/04/05 04:23:33;;;;;;;1.48;1.25;;;11.50;66.20;;;;;;5079449;28;20513;-43
2022/04/05 04:26:01;;;;;;;0.80;0.70;;;11.60;66.40;;;;;;5081752;28;20626;-43
2022/04/05 04:28:29;;;;;;;1.00;0.90;;;11.60;66.40;;;;;;5080366;28;20578;-43
2022/04/05 04:31:00;;;;;;;2.42;1.02;;;11.60;66.30;;;;;;5078688;28;20058;-43
2022/04/05 04:33:27;;;;;;;1.73;1.00;;;11.50;66.40;;;;;;5081640;28;20086;-46
2022/04/05 04:35:56;;;;;;;3.17;0.95;;;11.60;66.50;;;;;;5081418;28;20040;-43
2022/04/05 04:38:24;;;;;;;1.80;0.98;;;11.60;66.60;;;;;;5070877;28;20423;-43
2022/04/05 04:40:51;;;;;;;1.33;1.23;;;11.50;66.50;;;;;;5061515;28;20416;-48
2022/04/05 04:43:21;;;;;;;1.42;1.15;;;11.60;67.30;;;;;;5058632;28;20052;-43
2022/04/05 04:45:49;;;;;;;1.10;1.00;;;11.60;66.80;;;;;;5062178;28;20049;-45
2022/04/05 04:48:17;;;;;;;0.80;0.68;;;11.60;66.70;;;;;;5061124;28;20045;-44
2022/04/05 04:50:44;;;;;;;1.15;0.90;;;11.60;66.70;;;;;;5058562;28;20079;-43
2022/04/05 04:53:13;;;;;;;0.70;0.70;;;11.60;66.70;;;;;;5061011;28;20487;-46
2022/04/05 04:55:42;;;;;;;1.08;0.90;;;11.60;66.70;;;;;;5061591;28;20063;-43
2022/04/05 04:58:10;;;;;;;2.63;0.93;;;11.60;66.70;;;;;;5058547;28;20064;-43
2022/04/05 05:00:37;;;;;;;1.30;0.90;;;11.60;66.80;;;;;;5056932;28;20496;-42
2022/04/05 05:03:05;;;;;;;0.70;0.68;;;11.60;66.80;;;;;;5057563;28;20044;-43
2022/04/05 05:05:32;;;;;;;3.40;2.22;;;11.60;66.90;;;;;;5060502;28;20496;-43
2022/04/05 05:08:00;;;;;;;3.17;1.00;;;11.60;66.90;;;;;;5061302;28;20489;-44
2022/04/05 05:10:29;;;;;;;1.63;0.95;;;11.60;66.90;;;;;;5060287;28;20056;-43
2022/04/05 05:12:56;;;;;;;0.90;0.90;;;11.60;66.90;;;;;;5058838;28;20061;-44
2022/04/05 05:15:24;;;;;;;1.25;1.00;;;11.60;66.80;;;;;;5063690;28;20057;-43
2022/04/05 05:17:52;;;;;;;3.03;1.00;;;11.60;67.00;;;;;;5065788;28;20067;-45
2022/04/05 05:20:20;;;;;;;1.52;1.15;;;11.60;66.90;;;;;;5061714;28;20056;-43
2022/04/05 05:22:48;;;;;;;2.42;1.10;;;11.60;66.90;;;;;;5060084;28;20614;-43
2022/04/05 05:25:15;;;;;;;1.77;1.17;;;11.60;66.90;;;;;;5064516;28;20056;-45
2022/04/05 05:27:44;;;;;;;1.25;0.80;;;11.60;66.90;;;;;;5062731;28;20523;-43
2022/04/05 05:30:12;;;;;;;0.88;0.70;;;11.60;67.10;;;;;;5066665;28;20060;-43
2022/04/05 05:32:43;;;;;;;1.58;1.20;;;11.60;67.10;;;;;;5065585;28;20056;-43
2022/04/05 05:35:11;;;;;;;2.55;0.80;;;11.60;67.10;;;;;;5065476;28;20056;-42
2022/04/05 05:37:39;;;;;;;1.55;1.13;;;11.60;67.10;;;;;;5064462;28;20057;-43
2022/04/05 05:40:08;;;;;;;5.07;0.90;;;11.60;67.00;;;;;;5063458;28;20067;-43
2022/04/05 05:42:35;;;;;;;3.13;0.90;;;11.60;67.20;;;;;;5063903;28;20052;-43
2022/04/05 05:45:05;;;;;;;1.50;0.93;;;11.60;67.20;;;;;;5062280;28;20496;-43
2022/04/05 05:47:32;;;;;;;18.60;9.23;;;11.60;67.30;;;;;;5065329;28;20052;-43
2022/04/05 05:50:00;;;;;;;5.60;2.70;;;11.70;67.30;;;;;;5065259;28;20127;-43
2022/04/05 05:52:27;;;;;;;2.45;1.17;;;11.70;67.30;;;;;;5062158;28;20051;-43
2022/04/05 05:54:55;;;;;;;2.00;1.02;;;11.70;67.30;;;;;;5063582;28;20072;-43
2022/04/05 05:57:22;;;;;;;1.52;1.13;;;11.70;67.30;;;;;;5054616;28;20055;-43
2022/04/05 06:03:39;;;;;;;2.67;0.80;;;11.70;67.10;;;;;;5007767;28;20062;-45
2022/04/05 06:09:10;;;;;;;1.98;1.02;;;11.70;66.40;;;;;;5060262;28;19921;-43
2022/04/05 06:11:37;;;;;;;2.70;1.20;;;11.80;66.20;;;;;;5062777;28;20052;-43
2022/04/05 06:14:04;;;;;;;1.20;0.90;;;11.70;66.20;;;;;;5061714;28;20067;-43
2022/04/05 06:16:33;;;;;;;1.35;0.88;;;11.70;66.20;;;;;;5061616;28;20641;-43
2022/04/05 06:19:01;;;;;;;1.00;0.88;;;11.70;66.40;;;;;;5060875;28;20059;-44
2022/04/05 06:21:29;;;;;;;1.27;0.90;;;11.70;66.60;;;;;;5062014;28;20048;-43
2022/04/05 06:23:56;;;;;;;2.08;0.90;;;11.70;66.50;;;;;;5059629;28;20733;-43
2022/04/05 06:26:24;;;;;;;1.85;0.98;;;11.60;66.40;;;;;;5060491;28;20048;-44
2022/04/05 06:28:54;;;;;;;1.00;0.70;;;11.60;66.40;;;;;;5062481;28;20060;-43
2022/04/05 06:31:22;;;;;;;3.13;1.23;;;11.70;66.60;;;;;;5061356;28;20067;-43
2022/04/05 06:33:51;;;;;;;1.52;1.00;;;11.70;66.50;;;;;;5063282;28;20538;-44
2022/04/05 06:36:19;;;;;;;1.75;0.75;;;11.60;66.50;;;;;;5061425;28;20500;-42
2022/04/05 06:38:46;;;;;;;2.95;1.08;;;11.70;66.60;;;;;;5076224;28;20052;-44
2022/04/05 06:41:14;;;;;;;1.30;0.85;;;11.70;66.60;;;;;;5081421;28;20056;-42
2022/04/05 06:43:41;;;;;;;1.17;0.90;;;11.70;66.50;;;;;;5083104;28;20044;-44
2022/04/05 06:46:09;;;;;;;2.47;0.80;;;11.70;66.50;;;;;;5081164;28;20064;-45
2022/04/05 06:48:36;;;;;;;0.60;0.60;;;11.70;66.50;;;;;;5080378;28;20055;-43
2022/04/05 06:51:05;;;;;;;0.95;0.60;;;11.70;66.60;;;;;;5081734;28;20403;-43
2022/04/05 06:53:33;;;;;;;0.73;0.60;;;11.70;66.80;;;;;;5079541;28;20059;-46
2022/04/05 06:56:00;;;;;;;1.05;0.50;;;11.70;66.70;;;;;;5083604;28;20059;-43
2022/04/05 06:58:28;;;;;;;0.70;0.50;;;11.70;66.50;;;;;;5075291;28;20072;-43
2022/04/05 07:00:55;;;;;;;1.95;1.10;;;11.70;66.40;;;;;;5080274;28;20063;-43
2022/04/05 07:03:23;;;;;;;2.45;0.80;;;11.70;66.40;;;;;;5074443;28;20052;-43
2022/04/05 07:05:50;;;;;;;0.60;0.50;;;11.70;66.40;;;;;;5081029;28;20055;-43
2022/04/05 07:08:19;;;;;;;0.52;0.35;;;11.70;66.40;;;;;;5079399;28;20052;-44
2022/04/05 07:10:47;;;;;;;0.50;0.40;;;11.70;66.40;;;;;;5081524;28;20048;-43
2022/04/05 07:13:14;;;;;;;0.60;0.55;;;11.80;66.40;;;;;;5079085;28;20055;-43
2022/04/05 07:15:42;;;;;;;19.15;9.00;;;11.80;66.30;;;;;;5083687;28;20067;-44
2022/04/05 07:18:09;;;;;;;4.03;2.10;;;11.80;66.60;;;;;;5084312;28;20055;-43
2022/04/05 07:20:37;;;;;;;1.00;0.70;;;11.80;66.30;;;;;;5082811;28;20059;-44
2022/04/05 07:23:05;;;;;;;0.60;0.52;;;11.80;66.30;;;;;;5081517;28;20051;-43
2022/04/05 07:25:35;;;;;;;4.32;0.50;;;11.80;66.20;;;;;;5082428;28;20052;-42
2022/04/05 07:28:03;;;;;;;0.85;0.40;;;11.80;66.20;;;;;;5082350;28;20048;-43
2022/04/05 07:30:31;;;;;;;0.40;0.40;;;11.80;66.30;;;;;;5081956;28;20066;-42
2022/04/05 07:32:58;;;;;;;0.50;0.40;;;11.80;66.30;;;;;;5080762;28;20048;-42
2022/04/05 07:35:27;;;;;;;1.40;0.60;;;11.80;66.40;;;;;;5079225;28;20512;-48
2022/04/05 07:37:54;;;;;;;0.68;0.47;;;11.80;66.50;;;;;;5076492;28;20064;-43
2022/04/05 07:40:22;;;;;;;0.60;0.60;;;11.80;66.70;;;;;;5059781;28;20051;-43
2022/04/05 07:42:50;;;;;;;1.13;0.70;;;11.80;66.80;;;;;;5061026;28;20064;-43
2022/04/05 07:45:18;;;;;;;1.67;0.73;;;11.80;66.90;;;;;;5062813;28;20056;-43
2022/04/05 07:47:46;;;;;;;0.55;0.47;;;11.80;67.00;;;;;;5061465;28;20063;-43
2022/04/05 07:50:14;;;;;;;0.50;0.40;;;11.80;67.10;;;;;;5063127;28;20496;-43
2022/04/05 07:52:44;;;;;;;1.63;0.50;;;11.80;67.10;;;;;;5061729;28;20056;-42
2022/04/05 07:55:12;;;;;;;2.78;0.60;;;11.80;67.30;;;;;;5061018;28;20071;-44
2022/04/05 07:57:40;;;;;;;1.88;0.55;;;11.80;67.30;;;;;;5061989;28;20056;-44
2022/04/05 08:00:11;;;;;;;0.80;0.65;;;11.90;67.40;;;;;;5063460;28;20515;-43
2022/04/05 08:02:38;;;;;;;0.80;0.80;;;11.90;67.60;;;;;;5061553;28;20055;-43
2022/04/05 08:05:06;;;;;;;1.50;0.73;;;11.90;68.30;;;;;;5061309;28;20064;-42
2022/04/05 08:07:34;;;;;;;0.85;0.80;;;11.90;67.60;;;;;;5061523;28;20488;-43
2022/04/05 08:10:01;;;;;;;0.63;0.50;;;11.90;67.60;;;;;;5058983;28;20059;-43
2022/04/05 08:12:36;;;;;;;1.30;0.98;;;11.90;67.60;;;;;;5059996;28;20488;-42
2022/04/05 08:15:03;;;;;;;1.85;1.00;;;12.00;67.90;;;;;;5062708;28;20428;-43
2022/04/05 08:17:35;;;;;;;0.90;0.77;;;12.00;67.80;;;;;;5062011;28;20044;-42
2022/04/05 08:20:03;;;;;;;0.88;0.70;;;11.90;68.00;;;;;;5060400;28;20052;-43
2022/04/05 08:22:32;;;;;;;1.60;0.70;;;12.00;68.00;;;;;;5060600;28;20070;-43
2022/04/05 08:24:59;;;;;;;2.05;0.70;;;12.00;68.10;;;;;;5058328;28;20059;-45
2022/04/05 08:27:28;;;;;;;4.30;0.63;;;12.00;68.00;;;;;;5066614;28;20040;-43
2022/04/05 08:30:06;;;;;;;0.57;0.57;;;12.10;68.10;;;;;;5068904;28;20069;-43
2022/04/05 08:32:36;;;;;;;0.88;0.70;;;12.10;68.50;;;;;;5058211;28;20508;-43
2022/04/05 08:35:05;;;;;;;1.00;0.52;;;12.10;68.30;;;;;;5060268;28;20063;-43
2022/04/05 08:37:32;;;;;;;0.77;0.70;;;12.10;68.20;;;;;;5065251;28;20052;-43
2022/04/05 08:40:03;;;;;;;1.90;0.65;;;12.20;68.10;;;;;;5080871;28;20516;-45
2022/04/05 08:42:30;;;;;;;1.17;0.80;;;12.20;68.10;;;;;;5080261;28;20048;-43
2022/04/05 08:44:58;;;;;;;1.48;0.90;;;12.20;68.10;;;;;;5081691;28;20048;-43
2022/04/05 08:47:27;;;;;;;1.00;0.90;;;12.20;68.20;;;;;;5079100;28;20055;-43
2022/04/05 08:49:56;;;;;;;1.50;0.93;;;12.20;68.40;;;;;;5080951;28;20060;-47
2022/04/05 08:52:24;;;;;;;1.15;0.98;;;12.20;68.40;;;;;;5077968;28;20522;-43
2022/04/05 08:54:52;;;;;;;1.45;1.20;;;12.30;68.50;;;;;;5078415;28;20048;-46
2022/04/05 08:57:20;;;;;;;1.48;1.30;;;12.30;68.60;;;;;;5079557;28;20048;-43
2022/04/05 08:59:47;;;;;;;1.90;1.58;;;12.30;68.50;;;;;;5077985;28;20052;-44
2022/04/05 09:02:24;;;;;;;1.80;1.70;;;12.30;68.60;;;;;;5079295;28;20074;-43
2022/04/05 09:04:51;;;;;;;4.13;2.10;;;12.30;68.70;;;;;;5080500;28;20083;-43
2022/04/05 09:07:21;;;;;;;3.80;2.78;;;12.40;68.80;;;;;;5081779;28;20055;-45
2022/04/05 09:10:08;;;;;;;4.95;3.40;;;12.40;69.10;;;;;;5079225;28;20063;-43
2022/04/05 09:12:42;;;;;;;7.40;3.80;;;12.50;69.80;;;;;;5078232;28;20048;-45
2022/04/05 09:15:12;;;;;;;4.90;3.92;;;12.50;69.90;;;;;;5081469;28;20063;-44
2022/04/05 09:17:43;;;;;;;5.50;4.63;;;12.50;69.90;;;;;;5082375;28;20056;-43
2022/04/05 09:20:11;;;;;;;7.18;5.60;;;12.50;69.90;;;;;;5081411;28;20056;-43
2022/04/05 09:22:41;;;;;;;6.65;5.53;;;12.60;70.00;;;;;;5081966;28;20408;-45
2022/04/05 09:25:10;;;;;;;6.53;5.53;;;12.60;70.20;;;;;;5081772;28;20498;-43
2022/04/05 09:27:49;;;;;;;8.88;6.32;;;12.70;70.30;;;;;;5077989;28;20503;-44
2022/04/05 09:30:18;;;;;;;8.65;6.65;;;12.70;70.80;;;;;;5078253;28;20071;-43
2022/04/05 09:32:48;;;;;;;9.60;7.18;;;12.70;70.70;;;;;;5078138;28;20048;-43
2022/04/05 09:35:18;;;;;;;12.68;8.52;;;12.80;70.80;;;;;;5077429;28;20051;-44
2022/04/05 09:37:48;;;;;;;10.55;7.95;;;12.80;71.20;;;;;;5080316;28;20055;-44
2022/04/05 09:40:17;;;;;;;9.98;7.93;;;12.90;72.30;;;;;;5079077;28;20487;-43
2022/04/05 09:43:02;;;;;;;11.00;8.90;;;13.00;71.70;;;;;;5079984;28;20496;-43
2022/04/05 09:45:47;;;;;;;9.77;7.57;;;13.10;71.90;;;;;;5080892;28;20052;-43
2022/04/05 09:48:16;;;;;;;11.00;8.65;;;13.20;71.80;;;;;;5081416;28;20052;-43
2022/04/05 09:51:03;;;;;;;10.73;9.00;;;13.20;71.50;;;;;;5080579;28;20074;-43
2022/04/05 09:53:50;;;;;;;15.45;9.00;;;13.40;70.60;;;;;;5080913;28;20060;-43
2022/04/05 09:56:19;;;;;;;11.25;8.73;;;13.40;70.20;;;;;;5080082;28;20063;-43
2022/04/05 09:58:49;;;;;;;12.55;8.95;;;13.50;69.90;;;;;;5080353;28;20052;-45
2022/04/05 10:01:18;;;;;;;12.43;8.82;;;13.50;69.50;;;;;;5083851;28;20423;-44
2022/04/05 10:03:58;;;;;;;10.32;7.80;;;13.60;69.50;;;;;;5084268;28;20051;-45
2022/04/05 10:06:28;;;;;;;10.50;8.40;;;13.60;69.30;;;;;;5085205;28;20499;-44
2022/04/05 10:08:57;;;;;;;9.95;7.15;;;13.60;68.90;;;;;;5084482;28;20392;-44
2022/04/05 10:11:26;;;;;;;9.35;7.18;;;13.70;68.40;;;;;;5082375;28;20617;-43
2022/04/05 10:13:54;;;;;;;9.02;7.03;;;13.60;68.40;;;;;;5083194;28;20506;-45
2022/04/05 10:16:24;;;;;;;8.80;7.25;;;13.60;68.50;;;;;;5084054;28;20052;-44
2022/04/05 10:18:56;;;;;;;8.45;7.38;;;13.60;68.40;;;;;;5083206;28;20056;-46
2022/04/05 10:21:26;;;;;;;8.13;6.90;;;13.60;68.60;;;;;;5083380;28;20052;-44
2022/04/05 10:23:55;;;;;;;10.02;7.28;;;13.60;68.80;;;;;;5082572;28;20062;-44
2022/04/05 10:26:24;;;;;;;8.75;7.47;;;13.60;68.80;;;;;;5083109;28;20048;-44
2022/04/05 10:28:53;;;;;;;10.32;7.93;;;13.60;68.90;;;;;;5083805;28;20500;-44
2022/04/05 10:31:27;;;;;;;10.77;8.38;;;13.60;69.10;;;;;;5082858;28;20075;-44
2022/04/05 10:34:08;;;;;;;12.07;8.52;;;13.60;69.20;;;;;;5084007;28;20071;-47
2022/04/05 10:36:36;;;;;;;11.68;7.78;;;13.60;69.10;;;;;;5083886;28;20134;-43
2022/04/05 10:39:17;;;;;;;10.35;8.57;;;13.60;69.00;;;;;;5083990;28;20064;-43
2022/04/05 10:42:20;;;;;;;10.13;8.60;;;13.60;69.00;;;;;;5082751;28;20044;-44
2022/04/05 10:44:51;;;;;;;12.55;8.95;;;13.60;69.10;;;;;;5082744;28;20668;-43
2022/04/05 10:47:19;;;;;;;8.90;7.70;;;13.60;68.80;;;;;;5083471;28;20514;-44
2022/04/05 10:49:48;;;;;;;10.27;7.72;;;13.60;68.90;;;;;;5079072;28;20055;-44
2022/04/05 10:52:19;;;;;;;9.65;8.18;;;13.60;68.90;;;;;;5077493;28;20491;-44
2022/04/05 10:54:49;;;;;;;10.25;8.40;;;13.70;68.90;;;;;;5081115;28;20476;-43
2022/04/05 10:57:30;;;;;;;9.80;7.72;;;13.60;69.00;;;;;;5079618;28;20059;-43
2022/04/05 11:00:05;;;;;;;8.10;6.50;;;13.70;69.20;;;;;;5081088;28;20060;-44
2022/04/05 11:02:36;;;;;;;9.18;6.35;;;13.70;69.10;;;;;;5080784;28;20048;-44
2022/04/05 11:05:35;;;;;;;7.47;6.38;;;13.70;69.00;;;;;;5082302;28;20063;-43
2022/04/05 11:08:10;;;;;;;7.25;5.90;;;13.80;68.80;;;;;;5075644;28;20052;-44
2022/04/05 11:10:54;;;;;;;9.32;6.10;;;13.80;68.90;;;;;;5081936;28;20060;-43
2022/04/05 11:13:35;;;;;;;7.22;6.15;;;13.80;68.90;;;;;;5081757;28;20056;-45
2022/04/05 11:16:04;;;;;;;7.45;6.22;;;13.80;68.90;;;;;;5082931;28;20068;-44
2022/04/05 11:18:34;;;;;;;8.07;6.72;;;13.80;68.70;;;;;;5083718;28;20419;-43
2022/04/05 11:21:06;;;;;;;7.07;5.82;;;13.80;68.80;;;;;;5083589;28;20052;-44
2022/04/05 11:23:57;;;;;;;9.70;6.97;;;13.70;68.80;;;;;;5082389;28;20056;-44
2022/04/05 11:26:35;;;;;;;7.38;6.07;;;13.70;69.20;;;;;;5062535;28;20052;-47
2022/04/05 11:29:19;;;;;;;7.90;6.45;;;13.70;68.90;;;;;;5081906;28;20047;-45
2022/04/05 11:31:48;;;;;;;7.70;6.47;;;13.70;68.90;;;;;;5081222;28;20054;-47
2022/04/05 11:34:34;;;;;;;9.85;6.25;;;13.70;69.00;;;;;;5083109;28;20126;-43
2022/04/05 11:37:02;;;;;;;8.30;7.18;;;13.70;69.30;;;;;;5082805;28;20056;-44
2022/04/05 11:39:30;;;;;;;9.07;7.28;;;13.70;69.10;;;;;;5062613;28;20057;-44
2022/04/05 11:42:01;;;;;;;9.25;7.13;;;13.80;69.40;;;;;;5061266;28;20486;-43
2022/04/05 11:44:30;;;;;;;9.00;7.30;;;13.80;70.10;;;;;;5062231;28;20052;-43
2022/04/05 11:46:59;;;;;;;7.82;6.30;;;13.80;69.60;;;;;;5060536;28;20052;-43
2022/04/05 11:49:27;;;;;;;8.63;6.95;;;13.90;69.90;;;;;;5063332;28;20060;-43
2022/04/05 11:51:55;;;;;;;11.80;7.75;;;13.90;70.00;;;;;;5061548;28;20048;-43
2022/04/05 11:54:24;;;;;;;10.82;7.18;;;14.00;69.70;;;;;;5061250;28;20063;-43
2022/04/05 11:56:54;;;;;;;8.18;6.90;;;14.00;69.40;;;;;;5062298;28;20048;-43
2022/04/05 11:59:27;;;;;;;8.38;6.45;;;14.10;69.40;;;;;;5062067;28;20052;-43
2022/04/05 12:01:56;;;;;;;8.43;6.78;;;14.20;69.10;;;;;;5061699;28;20048;-43
2022/04/05 12:04:25;;;;;;;10.88;7.35;;;14.20;69.10;;;;;;5062131;28;20056;-44
2022/04/05 12:06:58;;;;;;;8.48;6.70;;;14.30;68.90;;;;;;5062041;28;20053;-44
2022/04/05 12:09:26;;;;;;;10.02;6.32;;;14.30;68.70;;;;;;5061775;28;20045;-44
2022/04/05 12:11:54;;;;;;;8.20;5.82;;;14.40;68.30;;;;;;5060579;28;20053;-43
2022/04/05 12:14:24;;;;;;;6.90;5.30;;;14.40;67.80;;;;;;5061022;28;20053;-45
2022/04/05 12:16:54;;;;;;;10.15;5.80;;;14.40;67.40;;;;;;5061266;28;20063;-44
2022/04/05 12:19:24;;;;;;;7.72;6.20;;;14.40;67.50;;;;;;5062809;28;20075;-43
2022/04/05 12:21:55;;;;;;;6.22;5.35;;;14.40;67.30;;;;;;5058992;28;20056;-46
2022/04/05 12:24:24;;;;;;;10.48;7.40;;;14.40;66.80;;;;;;5061519;28;20055;-44
2022/04/05 12:26:52;;;;;;;7.10;5.47;;;14.40;66.90;;;;;;5060591;28;20056;-43
2022/04/05 12:29:19;;;;;;;6.13;5.50;;;14.30;66.70;;;;;;5062481;28;20045;-43
2022/04/05 12:31:47;;;;;;;6.50;4.80;;;14.40;66.70;;;;;;5059651;28;20412;-43
2022/04/05 12:34:15;;;;;;;5.85;4.65;;;14.30;66.60;;;;;;5060481;28;20057;-43
2022/04/05 12:36:46;;;;;;;6.25;5.00;;;14.30;66.90;;;;;;5059891;28;20056;-44
2022/04/05 12:39:20;;;;;;;6.32;5.00;;;14.30;67.10;;;;;;5075961;28;20415;-44
2022/04/05 12:41:48;;;;;;;;;;;14.30;67.30;;;;;;5080476;28;20407;-46
2022/04/05 12:44:17;;;;;;;7.05;4.97;;;14.40;67.30;;;;;;5079201;28;19931;-43
2022/04/05 12:46:50;;;;;;;5.38;4.88;;;14.40;67.30;;;;;;5081445;28;20059;-46
2022/04/05 12:49:20;;;;;;;8.40;5.65;;;14.40;67.40;;;;;;5082821;28;20051;-43
2022/04/05 12:51:50;;;;;;;6.30;4.95;;;14.40;67.30;;;;;;5080152;28;20142;-43
2022/04/05 12:54:29;;;;;;;7.20;5.53;;;14.40;67.10;;;;;;5081094;28;20067;-43
2022/04/05 12:57:16;;;;;;;5.70;5.15;;;14.30;67.10;;;;;;5073916;28;20113;-43
2022/04/05 12:59:44;;;;;;;7.05;5.53;;;14.40;67.30;;;;;;5079139;28;20063;-44
2022/04/05 13:02:22;;;;;;;9.52;5.60;;;14.40;67.20;;;;;;5081838;28;20059;-48
2022/04/05 13:04:51;;;;;;;6.78;4.40;;;14.30;67.20;;;;;;5080618;28;20083;-43